createdAt,value
2023-05-12T00:02:37.744Z,76.76
2023-05-12T00:06:50.204Z,78.98
2023-05-12T00:11:03.168Z,77.98
2023-05-12T00:15:15.783Z,78.96
2023-05-12T00:19:28.317Z,77.57
2023-05-12T00:23:40.872Z,77.81
2023-05-12T00:27:53.405Z,77.29
2023-05-12T00:32:07.289Z,79.45
2023-05-12T00:36:20.164Z,79.28
2023-05-12T00:40:32.732Z,78.30
2023-05-12T00:44:45.869Z,76.69
2023-05-12T00:48:59.312Z,77.34
2023-05-12T00:53:13.375Z,77.71
2023-05-12T00:57:28.291Z,76.91
2023-05-12T01:01:41.377Z,75.63
2023-05-12T01:06:15.846Z,76.99
2023-05-12T01:10:28.312Z,78.92
2023-05-12T01:14:41.808Z,79.33
2023-05-12T01:18:56.497Z,79.64
2023-05-12T01:23:09.893Z,78.24
2023-05-12T01:27:26.106Z,77.01
2023-05-12T01:31:39.612Z,77.35
2023-05-12T01:35:52.079Z,76.95
2023-05-12T01:40:05.322Z,77.21
2023-05-12T01:44:18.062Z,77.92
2023-05-12T01:48:30.820Z,76.11
2023-05-12T01:52:45.986Z,77.75
2023-05-12T01:57:01.129Z,78.18
2023-05-12T02:01:13.744Z,78.97
2023-05-12T02:05:26.688Z,78.46
2023-05-12T02:09:39.504Z,78.34
2023-05-12T02:13:52.554Z,79.13
2023-05-12T02:18:05.250Z,79.52
2023-05-12T02:22:17.882Z,78.24
2023-05-12T02:26:30.347Z,80.27
2023-05-12T02:30:51.105Z,78.25
2023-05-12T02:35:03.510Z,77.84
2023-05-12T02:39:16.141Z,76.69
2023-05-12T02:43:28.525Z,76.39
2023-05-12T02:47:41.059Z,77.10
2023-05-12T02:51:55.230Z,77.63
2023-05-12T02:56:08.433Z,78.30
2023-05-12T03:00:21.029Z,79.50
2023-05-12T03:04:34.127Z,80.13
2023-05-12T03:08:47.278Z,78.98
2023-05-12T03:12:59.780Z,79.28
2023-05-12T03:17:12.365Z,80.16
2023-05-12T03:21:24.871Z,80.07
2023-05-12T03:25:37.229Z,79.17
2023-05-12T03:29:49.716Z,79.14
2023-05-12T03:34:02.392Z,76.11
2023-05-12T03:38:14.832Z,77.40
2023-05-12T03:42:27.233Z,76.75
2023-05-12T03:46:39.675Z,77.29
2023-05-12T03:50:52.163Z,75.96
2023-05-12T03:55:07.252Z,75.13
2023-05-12T03:59:19.777Z,75.61
2023-05-12T04:03:32.375Z,75.06
2023-05-12T04:07:44.772Z,74.96
2023-05-12T04:11:57.256Z,75.17
2023-05-12T04:16:10.166Z,75.24
2023-05-12T04:20:23.317Z,74.04
2023-05-12T04:24:37.915Z,74.11
2023-05-12T04:28:50.604Z,74.25
2023-05-12T04:33:03.486Z,73.10
2023-05-12T04:37:16.538Z,72.41
2023-05-12T04:41:30.154Z,72.42
2023-05-12T04:45:44.405Z,70.99
2023-05-12T04:50:00.157Z,69.68
2023-05-12T04:54:12.800Z,69.42
2023-05-12T04:58:25.749Z,67.82
2023-05-12T05:02:38.688Z,67.70
2023-05-12T05:06:51.346Z,67.38
2023-05-12T05:11:04.691Z,68.37
2023-05-12T05:15:17.896Z,67.98
2023-05-12T05:23:48.285Z,66.92
2023-05-12T05:28:01.499Z,67.81
2023-05-12T05:32:14.240Z,67.76
2023-05-12T05:36:27.345Z,70.34
2023-05-12T05:40:52.109Z,69.47
2023-05-12T05:45:06.786Z,67.15
2023-05-12T05:49:20.383Z,65.19
2023-05-12T05:53:33.592Z,64.18
2023-05-12T05:57:46.780Z,62.63
2023-05-12T06:01:59.258Z,62.33
2023-05-12T06:06:11.703Z,58.66
2023-05-12T06:10:24.878Z,59.30
2023-05-12T06:14:37.281Z,57.52
2023-05-12T06:18:49.728Z,58.32
2023-05-12T06:23:02.405Z,57.93
2023-05-12T06:27:14.865Z,56.31
2023-05-12T06:31:27.294Z,56.47
2023-05-12T06:35:40.125Z,56.99
2023-05-12T06:39:52.589Z,55.90
2023-05-12T06:44:06.584Z,55.62
2023-05-12T06:48:18.873Z,55.01
2023-05-12T06:52:31.783Z,56.15
2023-05-12T06:56:44.510Z,53.78
2023-05-12T07:00:57.815Z,54.32
2023-05-12T07:05:10.455Z,53.31
2023-05-12T07:09:23.255Z,52.40
2023-05-12T07:13:35.817Z,49.30
2023-05-12T07:17:48.452Z,49.70
2023-05-12T07:22:00.900Z,52.01
2023-05-12T07:26:13.469Z,51.74
2023-05-12T07:30:26.019Z,49.16
2023-05-12T07:34:39.133Z,45.82
2023-05-12T07:38:51.678Z,44.48
2023-05-12T07:43:04.095Z,43.16
2023-05-12T07:47:16.482Z,41.74
2023-05-12T07:51:29.396Z,42.82
2023-05-12T07:55:43.497Z,43.20
2023-05-12T07:59:56.281Z,44.51
2023-05-12T08:04:11.283Z,41.34
2023-05-12T08:08:23.682Z,43.29
2023-05-12T08:12:36.214Z,42.08
2023-05-12T08:16:48.797Z,41.72
2023-05-12T08:21:01.313Z,41.77
2023-05-12T08:25:13.850Z,39.90
2023-05-12T08:29:26.194Z,40.55
2023-05-12T08:33:38.708Z,40.67
2023-05-12T08:37:51.215Z,38.82
2023-05-12T08:42:27.858Z,40.30
2023-05-12T08:46:41.090Z,39.04
2023-05-12T08:50:55.034Z,39.56
2023-05-12T08:55:09.724Z,38.74
2023-05-12T08:59:23.952Z,38.86
2023-05-12T09:03:36.573Z,38.64
2023-05-12T09:07:50.729Z,41.17
2023-05-12T09:12:04.343Z,40.45
2023-05-12T09:16:23.570Z,39.36
2023-05-12T09:20:36.105Z,36.97
2023-05-12T09:24:48.701Z,36.33
2023-05-12T09:29:08.708Z,38.24
2023-05-12T09:33:23.287Z,39.01
2023-05-12T09:37:35.845Z,39.78
2023-05-12T09:41:48.520Z,41.14
2023-05-12T09:46:06.408Z,41.04
2023-05-12T09:50:19.660Z,40.78
2023-05-12T09:54:33.906Z,41.60
2023-05-12T09:58:48.545Z,41.79
2023-05-12T10:03:01.832Z,43.07
2023-05-12T10:07:17.097Z,44.08
2023-05-12T10:11:30.206Z,43.28
2023-05-12T10:15:44.397Z,39.82
2023-05-12T10:19:57.671Z,40.52
2023-05-12T10:24:10.082Z,40.42
2023-05-12T10:28:22.849Z,39.79
2023-05-12T10:32:35.502Z,41.73
2023-05-12T10:36:50.537Z,42.42
2023-05-12T10:41:06.708Z,41.87
2023-05-12T10:45:20.708Z,40.02
2023-05-12T10:49:36.821Z,40.86
2023-05-12T10:53:54.891Z,40.14
2023-05-12T10:58:11.614Z,41.23
2023-05-12T11:02:32.063Z,43.10
2023-05-12T11:06:46.764Z,49.86
2023-05-12T11:10:59.742Z,53.43
2023-05-12T11:15:12.770Z,59.40
2023-05-12T11:19:25.154Z,62.24
2023-05-12T11:23:37.975Z,63.76
2023-05-12T11:27:50.894Z,63.54
2023-05-12T11:32:03.455Z,63.16
2023-05-12T11:36:21.773Z,64.09
2023-05-12T11:40:41.371Z,63.85
2023-05-12T11:44:55.704Z,64.01
2023-05-12T11:49:12.973Z,63.62
2023-05-12T11:53:26.085Z,63.86
2023-05-12T11:57:40.050Z,60.88
2023-05-12T12:01:52.562Z,57.99
2023-05-12T12:06:11.029Z,57.23
2023-05-12T12:10:23.510Z,53.70
2023-05-12T12:14:38.297Z,53.38
2023-05-12T12:18:50.921Z,56.11
2023-05-12T12:23:03.410Z,56.00
2023-05-12T12:27:16.110Z,57.58
2023-05-12T12:31:28.721Z,58.78
2023-05-12T12:35:41.727Z,60.10
2023-05-12T12:39:54.649Z,59.17
2023-05-12T12:44:07.420Z,58.96
2023-05-12T12:48:21.399Z,59.22
2023-05-12T12:52:34.098Z,62.92
2023-05-12T12:56:46.614Z,64.73
2023-05-12T13:00:59.443Z,69.80
2023-05-12T13:05:12.060Z,71.75
2023-05-12T13:09:24.740Z,71.40
2023-05-12T13:13:38.471Z,67.27
2023-05-12T13:17:51.030Z,66.00
2023-05-12T13:22:03.591Z,67.81
2023-05-12T13:26:16.121Z,65.92
2023-05-12T13:30:28.531Z,64.05
2023-05-12T13:34:41.115Z,60.81
2023-05-12T13:38:53.471Z,63.25
2023-05-12T13:43:05.905Z,57.46
2023-05-12T13:47:19.300Z,56.38
2023-05-12T13:51:32.720Z,52.67
2023-05-12T13:55:45.286Z,50.95
2023-05-12T13:59:58.849Z,51.79
2023-05-12T14:04:12.185Z,51.81
2023-05-12T14:08:24.528Z,51.12
2023-05-12T14:12:41.534Z,52.84
2023-05-12T14:16:54.411Z,53.22
2023-05-12T14:21:07.068Z,53.01
2023-05-12T14:25:19.776Z,53.43
2023-05-12T14:29:32.332Z,52.48
2023-05-12T14:33:44.785Z,50.89
2023-05-12T14:37:57.392Z,51.92
2023-05-12T14:42:09.823Z,52.10
2023-05-12T14:46:22.481Z,52.47
2023-05-12T14:50:35.050Z,52.56
2023-05-12T14:54:47.472Z,53.29
2023-05-12T14:59:00.390Z,51.16
2023-05-12T15:03:13.844Z,52.54
2023-05-12T15:07:26.396Z,51.68
2023-05-12T15:11:38.875Z,49.64
2023-05-12T15:15:55.076Z,49.39
2023-05-12T15:20:10.303Z,51.42
2023-05-12T15:24:22.675Z,50.69
2023-05-12T15:28:35.170Z,51.84
2023-05-12T15:32:47.752Z,52.18
2023-05-12T15:37:00.290Z,53.71
2023-05-12T15:41:13.005Z,53.99
2023-05-12T15:45:25.655Z,53.95
2023-05-12T15:49:37.963Z,53.39
2023-05-12T15:53:53.692Z,53.33
2023-05-12T15:58:08.485Z,55.95
2023-05-12T16:02:20.918Z,57.29
2023-05-12T16:06:33.454Z,57.51
2023-05-12T16:10:45.971Z,58.77
2023-05-12T16:14:58.394Z,57.97
2023-05-12T16:19:11.017Z,57.24
2023-05-12T16:23:23.514Z,58.86
2023-05-12T16:27:36.886Z,60.06
2023-05-12T16:31:49.557Z,60.33
2023-05-12T16:36:02.194Z,60.85
2023-05-12T16:40:15.579Z,61.04
2023-05-12T16:44:28.209Z,60.38
2023-05-12T16:48:40.540Z,61.10
2023-05-12T16:52:54.151Z,61.20
2023-05-12T16:57:06.827Z,62.64
2023-05-12T17:01:19.611Z,62.57
2023-05-12T17:05:32.128Z,63.17
2023-05-12T17:09:44.436Z,63.97
2023-05-12T17:13:56.859Z,64.04
2023-05-12T17:18:09.593Z,64.72
2023-05-12T17:22:22.360Z,65.16
2023-05-12T17:26:35.328Z,65.71
2023-05-12T17:30:48.321Z,66.34
2023-05-12T17:35:00.884Z,65.64
2023-05-12T17:39:16.252Z,67.35
2023-05-12T17:43:30.052Z,67.30
2023-05-12T17:47:43.622Z,67.92
2023-05-12T17:51:56.459Z,68.11
2023-05-12T17:56:09.010Z,67.64
2023-05-12T18:00:22.042Z,68.20
2023-05-12T18:04:35.121Z,68.68
2023-05-12T18:08:47.581Z,70.36
2023-05-12T18:13:00.040Z,69.44
2023-05-12T18:17:12.430Z,68.76
2023-05-12T18:21:25.439Z,69.65
2023-05-12T18:25:38.009Z,69.97
2023-05-12T18:29:50.491Z,71.22
2023-05-12T18:34:02.968Z,72.46
2023-05-12T18:38:15.379Z,72.84
2023-05-12T18:42:29.247Z,72.90
2023-05-12T18:46:41.725Z,73.31
2023-05-12T18:50:57.264Z,72.81
2023-05-12T18:55:09.962Z,73.29
2023-05-12T18:59:22.391Z,73.38
2023-05-12T19:03:34.826Z,74.04
2023-05-12T19:07:47.088Z,73.31
2023-05-12T19:11:59.898Z,74.24
2023-05-12T19:16:12.509Z,72.55
2023-05-12T19:20:24.996Z,72.93
2023-05-12T19:24:38.244Z,72.19
2023-05-12T19:28:50.752Z,73.07
2023-05-12T19:33:03.266Z,71.61
2023-05-12T19:37:15.755Z,73.29
2023-05-12T19:41:30.268Z,73.45
2023-05-12T19:45:42.905Z,73.75
2023-05-12T19:49:55.598Z,74.07
2023-05-12T19:54:10.326Z,73.15
2023-05-12T19:58:22.914Z,72.35
2023-05-12T20:02:35.514Z,69.88
2023-05-12T20:06:47.928Z,70.88
2023-05-12T20:11:00.333Z,70.59
2023-05-12T20:15:12.805Z,71.02
2023-05-12T20:19:25.216Z,72.23
2023-05-12T20:23:38.251Z,73.83
2023-05-12T20:27:50.725Z,72.50
2023-05-12T20:32:03.243Z,73.21
2023-05-12T20:36:15.713Z,73.93
2023-05-12T20:40:28.106Z,74.74
2023-05-12T20:44:40.989Z,75.70
2023-05-12T20:48:53.353Z,76.14
2023-05-12T20:53:05.930Z,76.21
2023-05-12T20:57:18.425Z,77.39
2023-05-12T21:01:31.237Z,77.94
2023-05-12T21:05:47.962Z,78.46
2023-05-12T21:10:00.894Z,78.93
2023-05-12T21:14:13.416Z,79.08
2023-05-12T21:18:26.147Z,79.30
2023-05-12T21:22:40.928Z,77.96
2023-05-12T21:26:53.344Z,75.90
2023-05-12T21:31:05.915Z,77.43
2023-05-12T21:35:19.058Z,77.12
2023-05-12T21:39:31.529Z,76.69
2023-05-12T21:43:43.931Z,77.22
2023-05-12T21:47:56.469Z,78.47
2023-05-12T21:52:09.659Z,79.92
2023-05-12T21:56:23.340Z,79.57
2023-05-12T22:00:35.760Z,79.92
2023-05-12T22:04:48.234Z,79.84
2023-05-12T22:09:00.905Z,79.75
2023-05-12T22:13:13.341Z,79.44
2023-05-12T22:17:25.811Z,79.99
2023-05-12T22:21:41.332Z,79.39
2023-05-12T22:25:53.875Z,79.28
2023-05-12T22:30:06.998Z,80.37
2023-05-12T22:34:19.544Z,79.74
2023-05-12T22:38:31.995Z,78.89
2023-05-12T22:42:44.448Z,79.72
2023-05-12T22:46:56.832Z,79.38
2023-05-12T22:51:09.796Z,79.23
2023-05-12T22:55:22.463Z,78.83
2023-05-12T22:59:34.855Z,79.03
2023-05-12T23:03:47.379Z,80.06
2023-05-12T23:07:59.881Z,80.71
2023-05-12T23:12:12.511Z,80.13
2023-05-12T23:16:25.942Z,78.91
2023-05-12T23:20:38.446Z,78.36
2023-05-12T23:24:52.443Z,78.23
2023-05-12T23:29:04.872Z,77.05
2023-05-12T23:33:17.660Z,76.65
2023-05-12T23:37:30.093Z,78.45
2023-05-12T23:41:42.519Z,78.93
2023-05-12T23:45:55.033Z,78.84
2023-05-12T23:50:08.130Z,77.48
2023-05-12T23:54:20.618Z,78.31
2023-05-12T23:58:33.014Z,77.63
